createdAt,value
2023-05-01T00:01:20.014Z,16.67
2023-05-01T00:03:49.234Z,16.60
2023-05-01T00:06:18.376Z,16.50
2023-05-01T00:08:47.308Z,16.52
2023-05-01T00:11:17.222Z,16.49
2023-05-01T00:13:45.877Z,16.48
2023-05-01T00:16:15.404Z,16.46
2023-05-01T00:18:44.700Z,16.41
2023-05-01T00:21:13.585Z,16.40
2023-05-01T00:23:42.290Z,16.37
2023-05-01T00:26:13.245Z,16.31
2023-05-01T00:28:42.602Z,16.19
2023-05-01T00:31:11.726Z,16.14
2023-05-01T00:33:41.106Z,16.08
2023-05-01T00:36:10.502Z,16.07
2023-05-01T00:38:39.076Z,16.05
2023-05-01T00:41:08.183Z,16.10
2023-05-01T00:43:37.572Z,16.13
2023-05-01T00:46:06.810Z,16.17
2023-05-01T00:48:36.537Z,16.15
2023-05-01T00:51:07.805Z,16.09
2023-05-01T00:53:37.131Z,16.09
2023-05-01T00:56:06.875Z,16.09
2023-05-01T00:58:35.990Z,16.10
2023-05-01T01:01:09.995Z,16.09
2023-05-01T01:03:39.339Z,16.04
2023-05-01T01:06:44.277Z,16.09
2023-05-01T01:09:26.670Z,16.05
2023-05-01T01:12:21.693Z,15.98
2023-05-01T01:15:09.712Z,15.82
2023-05-01T01:18:02.972Z,15.76
2023-05-01T01:20:58.550Z,15.77
2023-05-01T01:23:42.650Z,15.78
2023-05-01T01:26:55.462Z,15.74
2023-05-01T01:29:57.331Z,15.63
2023-05-01T01:32:45.064Z,15.58
2023-05-01T01:35:20.376Z,15.58
2023-05-01T01:38:21.118Z,15.60
2023-05-01T01:41:12.879Z,15.49
2023-05-01T01:43:46.358Z,15.46
2023-05-01T01:46:18.239Z,15.43
2023-05-01T01:48:51.208Z,15.47
2023-05-01T01:51:22.777Z,15.45
2023-05-01T01:53:57.614Z,15.43
2023-05-01T01:56:28.411Z,15.46
2023-05-01T01:58:59.260Z,15.50
2023-05-01T02:01:30.970Z,15.52
2023-05-01T02:04:01.698Z,15.50
2023-05-01T02:06:35.017Z,15.47
2023-05-01T02:09:07.098Z,15.40
2023-05-01T02:11:38.161Z,15.35
2023-05-01T02:14:09.411Z,15.33
2023-05-01T02:16:38.940Z,15.26
2023-05-01T02:19:08.607Z,15.25
2023-05-01T02:21:39.714Z,15.24
2023-05-01T02:24:11.161Z,15.23
2023-05-01T02:26:44.101Z,15.16
2023-05-01T02:29:13.061Z,15.06
2023-05-01T02:31:42.396Z,15.04
2023-05-01T02:34:11.872Z,15.04
2023-05-01T02:36:41.135Z,15.07
2023-05-01T02:39:10.593Z,15.07
2023-05-01T02:41:41.256Z,15.02
2023-05-01T02:44:11.870Z,14.97
2023-05-01T02:46:46.134Z,14.95
2023-05-01T02:49:17.214Z,14.94
2023-05-01T02:51:47.622Z,14.92
2023-05-01T02:54:18.008Z,14.88
2023-05-01T02:56:46.871Z,14.88
2023-05-01T02:59:15.874Z,14.89
2023-05-01T03:01:44.718Z,14.93
2023-05-01T03:04:14.222Z,14.96
2023-05-01T03:06:45.289Z,14.91
2023-05-01T03:09:15.533Z,14.90
2023-05-01T03:11:44.722Z,14.89
2023-05-01T03:14:14.012Z,14.88
2023-05-01T03:16:44.301Z,14.86
2023-05-01T03:19:13.836Z,14.76
2023-05-01T03:21:43.176Z,14.72
2023-05-01T03:24:12.313Z,14.71
2023-05-01T03:26:41.325Z,14.71
2023-05-01T03:29:14.284Z,14.71
2023-05-01T03:31:43.999Z,14.66
2023-05-01T03:34:13.614Z,14.68
2023-05-01T03:36:43.662Z,14.70
2023-05-01T03:39:12.917Z,14.73
2023-05-01T03:41:42.332Z,14.76
2023-05-01T03:44:11.644Z,14.75
2023-05-01T03:46:41.800Z,14.82
2023-05-01T03:49:12.087Z,14.84
2023-05-01T03:51:41.570Z,14.89
2023-05-01T03:54:10.545Z,14.83
2023-05-01T03:56:39.550Z,14.81
2023-05-01T03:59:08.669Z,14.87
2023-05-01T04:01:37.531Z,14.92
2023-05-01T04:04:06.422Z,14.86
2023-05-01T04:06:35.851Z,14.76
2023-05-01T04:09:04.484Z,14.72
2023-05-01T04:11:33.778Z,14.76
2023-05-01T04:14:03.009Z,14.85
2023-05-01T04:16:32.754Z,14.90
2023-05-01T04:19:01.714Z,14.95
2023-05-01T04:21:31.194Z,14.90
2023-05-01T04:23:59.950Z,14.88
2023-05-01T04:26:29.965Z,14.88
2023-05-01T04:28:59.183Z,14.89
2023-05-01T04:31:28.399Z,14.89
2023-05-01T04:33:57.493Z,14.91
2023-05-01T04:36:26.655Z,14.89
2023-05-01T04:38:55.967Z,14.90
2023-05-01T04:41:25.307Z,14.92
2023-05-01T04:43:54.567Z,14.92
2023-05-01T04:46:23.338Z,14.94
2023-05-01T04:48:52.281Z,15.03
2023-05-01T04:51:22.224Z,15.10
2023-05-01T04:53:51.276Z,15.12
2023-05-01T04:56:20.775Z,15.16
2023-05-01T04:58:50.598Z,15.20
2023-05-01T05:01:19.728Z,15.20
2023-05-01T05:03:50.220Z,15.20
2023-05-01T05:06:19.526Z,15.18
2023-05-01T05:08:48.188Z,15.09
2023-05-01T05:11:17.103Z,15.04
2023-05-01T05:13:47.315Z,15.07
2023-05-01T05:16:17.410Z,15.19
2023-05-01T05:18:46.174Z,15.30
2023-05-01T05:21:15.400Z,15.44
2023-05-01T05:23:44.743Z,15.56
2023-05-01T05:26:14.020Z,15.72
2023-05-01T05:28:43.421Z,15.82
2023-05-01T05:31:12.701Z,15.84
2023-05-01T05:33:41.419Z,15.87
2023-05-01T05:36:10.977Z,15.96
2023-05-01T05:38:40.998Z,16.04
2023-05-01T05:41:09.779Z,16.13
2023-05-01T05:43:38.762Z,16.20
2023-05-01T05:46:08.585Z,16.28
2023-05-01T05:48:38.176Z,16.36
2023-05-01T05:51:07.543Z,16.39
2023-05-01T05:53:36.794Z,16.36
2023-05-01T05:56:06.610Z,16.41
2023-05-01T05:58:35.851Z,16.45
2023-05-01T06:01:07.474Z,16.43
2023-05-01T06:03:37.763Z,16.40
2023-05-01T06:06:07.314Z,16.39
2023-05-01T06:08:37.902Z,16.37
2023-05-01T06:11:09.146Z,16.32
2023-05-01T06:13:38.810Z,16.28
2023-05-01T06:16:09.015Z,16.26
2023-05-01T06:18:38.130Z,16.27
2023-05-01T06:21:07.989Z,16.33
2023-05-01T06:23:37.446Z,16.42
2023-05-01T06:26:08.931Z,16.47
2023-05-01T06:28:39.333Z,16.51
2023-05-01T06:31:09.892Z,16.62
2023-05-01T06:33:41.841Z,16.71
2023-05-01T06:36:13.798Z,16.73
2023-05-01T06:38:50.030Z,16.77
2023-05-01T06:41:20.683Z,16.79
2023-05-01T06:43:50.601Z,16.83
2023-05-01T06:46:20.072Z,16.94
2023-05-01T06:48:50.823Z,17.08
2023-05-01T06:51:20.670Z,17.12
2023-05-01T06:53:50.432Z,17.17
2023-05-01T06:56:23.530Z,17.26
2023-05-01T06:58:55.444Z,17.34
2023-05-01T07:01:28.121Z,17.43
2023-05-01T07:03:58.312Z,17.53
2023-05-01T07:06:29.247Z,17.62
2023-05-01T07:09:01.120Z,17.68
2023-05-01T07:11:31.725Z,17.77
2023-05-01T07:14:02.061Z,17.85
2023-05-01T07:16:31.640Z,17.91
2023-05-01T07:19:00.679Z,18.09
2023-05-01T07:21:30.799Z,18.14
2023-05-01T07:24:00.755Z,18.17
2023-05-01T07:26:31.022Z,18.24
2023-05-01T07:29:01.739Z,18.35
2023-05-01T07:31:31.690Z,18.50
2023-05-01T07:34:01.705Z,18.66
2023-05-01T07:36:34.872Z,18.84
2023-05-01T07:39:07.159Z,19.03
2023-05-01T07:41:37.507Z,19.23
2023-05-01T07:44:07.605Z,19.42
2023-05-01T07:46:39.351Z,19.61
2023-05-01T07:49:11.357Z,19.83
2023-05-01T07:51:43.461Z,20.01
2023-05-01T07:54:15.669Z,20.25
2023-05-01T07:56:45.152Z,20.54
2023-05-01T07:59:15.921Z,20.74
2023-05-01T08:01:45.514Z,20.95
2023-05-01T08:04:15.300Z,21.08
2023-05-01T08:06:44.747Z,21.20
2023-05-01T08:09:14.404Z,21.28
2023-05-01T08:11:43.695Z,21.34
2023-05-01T08:14:13.509Z,21.36
2023-05-01T08:16:42.936Z,21.37
2023-05-01T08:19:12.442Z,21.38
2023-05-01T08:21:41.713Z,21.39
2023-05-01T08:24:11.644Z,21.40
2023-05-01T08:26:40.669Z,21.40
2023-05-01T08:29:11.026Z,21.45
2023-05-01T08:31:40.040Z,21.50
2023-05-01T08:34:09.719Z,21.61
2023-05-01T08:36:39.228Z,21.80
2023-05-01T08:39:08.383Z,21.95
2023-05-01T08:41:39.048Z,22.05
2023-05-01T08:44:11.827Z,22.12
2023-05-01T08:47:03.358Z,22.23
2023-05-01T08:49:35.263Z,22.20
2023-05-01T08:52:07.125Z,22.33
2023-05-01T08:54:39.641Z,22.37
2023-05-01T08:57:11.204Z,22.43
2023-05-01T08:59:41.809Z,22.52
2023-05-01T09:02:12.235Z,22.60
2023-05-01T09:04:42.738Z,22.67
2023-05-01T09:07:13.514Z,22.73
2023-05-01T09:09:44.052Z,22.86
2023-05-01T09:12:21.858Z,22.89
2023-05-01T09:14:55.714Z,22.82
2023-05-01T09:17:25.544Z,22.84
2023-05-01T09:19:54.682Z,22.95
2023-05-01T09:22:24.064Z,23.00
2023-05-01T09:24:53.606Z,23.03
2023-05-01T09:27:23.343Z,23.08
2023-05-01T09:29:52.746Z,23.11
2023-05-01T09:32:26.344Z,23.19
2023-05-01T09:35:09.878Z,23.18
2023-05-01T09:37:39.317Z,23.15
2023-05-01T09:40:13.850Z,23.24
2023-05-01T09:42:52.104Z,23.26
2023-05-01T09:45:21.411Z,23.29
2023-05-01T09:47:50.906Z,23.27
2023-05-01T09:50:32.099Z,23.29
2023-05-01T09:53:07.250Z,23.24
2023-05-01T09:55:37.096Z,23.24
2023-05-01T09:58:06.920Z,23.38
2023-05-01T10:00:50.867Z,23.65
2023-05-01T10:03:21.715Z,23.88
2023-05-01T10:05:51.299Z,24.13
2023-05-01T10:08:21.159Z,24.44
2023-05-01T10:11:08.817Z,24.68
2023-05-01T10:13:38.259Z,25.02
2023-05-01T10:16:09.251Z,25.39
2023-05-01T10:18:38.828Z,25.90
2023-05-01T10:21:10.832Z,26.19
2023-05-01T10:23:40.839Z,26.32
2023-05-01T10:26:14.409Z,26.40
2023-05-01T10:28:47.944Z,26.37
2023-05-01T10:31:17.953Z,26.36
2023-05-01T10:33:48.056Z,26.27
2023-05-01T10:36:23.217Z,26.19
2023-05-01T10:38:53.541Z,26.12
2023-05-01T10:41:58.409Z,26.07
2023-05-01T10:44:28.037Z,25.94
2023-05-01T10:46:58.051Z,25.88
2023-05-01T10:50:06.913Z,25.88
2023-05-01T10:53:27.174Z,25.75
2023-05-01T10:55:57.689Z,25.80
2023-05-01T10:58:39.978Z,26.06
2023-05-01T11:01:41.221Z,26.24
2023-05-01T11:04:22.897Z,26.34
2023-05-01T11:07:11.526Z,26.47
2023-05-01T11:09:43.535Z,26.49
2023-05-01T11:12:14.706Z,26.52
2023-05-01T11:15:04.101Z,26.56
2023-05-01T11:17:42.461Z,26.51
2023-05-01T11:20:25.196Z,26.46
2023-05-01T11:22:57.040Z,26.30
2023-05-01T11:25:28.447Z,26.18
2023-05-01T11:28:04.361Z,26.15
2023-05-01T11:30:41.493Z,26.13
2023-05-01T11:33:11.249Z,26.08
2023-05-01T11:35:40.685Z,25.93
2023-05-01T11:38:21.791Z,25.73
2023-05-01T11:40:56.837Z,25.56
2023-05-01T11:43:26.828Z,25.45
2023-05-01T11:46:02.519Z,25.51
2023-05-01T11:48:33.042Z,25.47
2023-05-01T11:51:12.178Z,25.45
2023-05-01T11:53:42.101Z,25.40
2023-05-01T11:56:27.068Z,25.10
2023-05-01T11:58:58.754Z,24.87
2023-05-01T12:01:39.797Z,24.79
2023-05-01T12:04:09.699Z,24.78
2023-05-01T12:06:46.594Z,24.76
2023-05-01T12:09:27.416Z,24.63
2023-05-01T12:12:00.189Z,24.54
2023-05-01T12:14:29.804Z,24.44
2023-05-01T12:16:59.311Z,24.22
2023-05-01T12:19:28.858Z,24.23
2023-05-01T12:22:10.276Z,24.23
2023-05-01T12:24:49.081Z,24.17
2023-05-01T12:27:18.525Z,24.13
2023-05-01T12:29:48.595Z,24.19
2023-05-01T12:32:18.552Z,24.16
2023-05-01T12:34:48.925Z,24.03
2023-05-01T12:37:18.366Z,23.80
2023-05-01T12:39:48.002Z,23.70
2023-05-01T12:42:18.688Z,23.74
2023-05-01T12:44:47.849Z,23.72
2023-05-01T12:47:17.237Z,23.72
2023-05-01T12:49:46.918Z,23.66
2023-05-01T12:52:17.201Z,23.59
2023-05-01T12:54:46.292Z,23.47
2023-05-01T12:57:17.636Z,23.43
2023-05-01T12:59:50.205Z,23.50
2023-05-01T13:02:20.388Z,23.59
2023-05-01T13:04:51.204Z,23.60
2023-05-01T13:07:20.897Z,23.65
2023-05-01T13:09:54.182Z,23.64
2023-05-01T13:12:25.575Z,23.67
2023-05-01T13:14:56.975Z,23.81
2023-05-01T13:17:30.024Z,23.87
2023-05-01T13:20:06.843Z,23.94
2023-05-01T13:22:39.235Z,24.04
2023-05-01T13:25:17.966Z,24.22
2023-05-01T13:27:55.651Z,24.25
2023-05-01T13:30:35.542Z,24.22
2023-05-01T13:33:07.435Z,24.06
2023-05-01T13:35:38.979Z,24.10
2023-05-01T13:38:13.440Z,24.05
2023-05-01T13:40:43.149Z,23.93
2023-05-01T13:43:18.682Z,23.91
2023-05-01T13:45:48.664Z,23.78
2023-05-01T13:48:19.750Z,23.74
2023-05-01T13:50:49.289Z,23.77
2023-05-01T13:53:19.688Z,23.83
2023-05-01T13:55:50.273Z,23.83
2023-05-01T13:58:20.165Z,23.92
2023-05-01T14:00:51.983Z,23.99
2023-05-01T14:03:24.053Z,23.99
2023-05-01T14:05:57.562Z,23.99
2023-05-01T14:08:32.065Z,24.04
2023-05-01T14:11:13.456Z,24.03
2023-05-01T14:13:47.585Z,23.98
2023-05-01T14:16:31.042Z,23.97
2023-05-01T14:19:01.279Z,23.77
2023-05-01T14:21:34.192Z,23.59
2023-05-01T14:24:05.691Z,23.57
2023-05-01T14:26:42.051Z,23.60
2023-05-01T14:29:42.580Z,23.56
2023-05-01T14:32:15.174Z,23.47
2023-05-01T14:34:47.995Z,23.42
2023-05-01T14:37:18.915Z,23.36
2023-05-01T14:39:48.852Z,23.39
2023-05-01T14:42:20.507Z,23.46
2023-05-01T14:44:50.013Z,23.49
2023-05-01T14:47:22.807Z,23.54
2023-05-01T14:49:56.076Z,23.69
2023-05-01T14:52:28.025Z,23.80
2023-05-01T14:54:57.487Z,23.89
2023-05-01T14:57:29.484Z,23.90
2023-05-01T14:59:59.466Z,24.05
2023-05-01T15:02:30.814Z,24.12
2023-05-01T15:05:02.772Z,24.12
2023-05-01T15:07:35.568Z,24.11
2023-05-01T15:10:06.982Z,24.06
2023-05-01T15:12:39.246Z,24.07
2023-05-01T15:15:11.430Z,24.04
2023-05-01T15:17:41.822Z,24.05
2023-05-01T15:20:14.163Z,24.00
2023-05-01T15:22:44.152Z,23.81
2023-05-01T15:25:13.509Z,23.71
2023-05-01T15:27:45.770Z,23.59
2023-05-01T15:30:17.183Z,23.47
2023-05-01T15:32:48.342Z,23.35
2023-05-01T15:35:17.984Z,23.25
2023-05-01T15:37:48.431Z,23.15
2023-05-01T15:40:18.051Z,23.15
2023-05-01T15:42:49.001Z,23.02
2023-05-01T15:45:19.570Z,22.80
2023-05-01T15:47:49.517Z,22.64
2023-05-01T15:50:20.322Z,22.56
2023-05-01T15:52:52.596Z,22.48
2023-05-01T15:55:22.538Z,22.30
2023-05-01T15:57:51.570Z,22.16
2023-05-01T16:00:23.100Z,22.00
2023-05-01T16:02:53.518Z,21.87
2023-05-01T16:05:22.943Z,21.78
2023-05-01T16:07:56.956Z,21.65
2023-05-01T16:10:27.231Z,21.54
2023-05-01T16:12:56.568Z,21.44
2023-05-01T16:15:26.026Z,21.36
2023-05-01T16:17:55.730Z,21.27
2023-05-01T16:20:25.083Z,21.11
2023-05-01T16:22:54.346Z,21.02
2023-05-01T16:25:23.845Z,20.99
2023-05-01T16:27:53.351Z,20.98
2023-05-01T16:30:25.637Z,20.93
2023-05-01T16:32:55.193Z,20.86
2023-05-01T16:35:28.692Z,20.81
2023-05-01T16:38:01.021Z,20.66
2023-05-01T16:40:32.090Z,20.59
2023-05-01T16:43:03.939Z,20.51
2023-05-01T16:45:34.484Z,20.42
2023-05-01T16:48:04.306Z,20.36
2023-05-01T16:50:34.800Z,20.28
2023-05-01T16:53:04.889Z,20.14
2023-05-01T16:55:35.191Z,20.09
2023-05-01T16:58:04.902Z,20.07
2023-05-01T17:00:34.043Z,20.03
2023-05-01T17:03:03.861Z,20.00
2023-05-01T17:05:34.275Z,19.96
2023-05-01T17:08:04.013Z,19.94
2023-05-01T17:10:35.109Z,19.87
2023-05-01T17:13:08.247Z,19.78
2023-05-01T17:15:38.308Z,19.68
2023-05-01T17:18:10.524Z,19.60
2023-05-01T17:20:41.487Z,19.53
2023-05-01T17:23:13.775Z,19.49
2023-05-01T17:25:45.588Z,19.49
2023-05-01T17:28:15.774Z,19.48
2023-05-01T17:30:48.676Z,19.39
2023-05-01T17:33:19.660Z,19.32
2023-05-01T17:35:58.728Z,19.30
2023-05-01T17:38:31.149Z,19.27
2023-05-01T17:41:03.914Z,19.27
2023-05-01T17:43:34.125Z,19.26
2023-05-01T17:46:05.594Z,19.26
2023-05-01T17:48:35.348Z,19.22
2023-05-01T17:51:05.945Z,19.15
2023-05-01T17:53:39.163Z,19.06
2023-05-01T17:56:09.810Z,18.98
2023-05-01T17:58:42.340Z,18.94
2023-05-01T18:01:13.979Z,18.93
2023-05-01T18:03:44.546Z,18.92
2023-05-01T18:06:15.212Z,18.88
2023-05-01T18:08:50.184Z,18.84
2023-05-01T18:11:26.200Z,18.80
2023-05-01T18:14:01.783Z,18.79
2023-05-01T18:16:33.710Z,18.71
2023-05-01T18:19:05.813Z,18.67
2023-05-01T18:21:38.267Z,18.64
2023-05-01T18:24:11.474Z,18.60
2023-05-01T18:26:41.250Z,18.58
2023-05-01T18:29:10.553Z,18.48
2023-05-01T18:31:40.474Z,18.43
2023-05-01T18:34:12.791Z,18.34
2023-05-01T18:36:44.589Z,18.25
2023-05-01T18:39:15.773Z,18.19
2023-05-01T18:41:45.769Z,18.20
2023-05-01T18:44:17.657Z,18.22
2023-05-01T18:46:47.634Z,18.23
2023-05-01T18:49:25.258Z,18.20
2023-05-01T18:51:55.370Z,18.16
2023-05-01T18:54:26.022Z,18.18
2023-05-01T18:56:56.386Z,18.21
2023-05-01T18:59:31.422Z,18.19
2023-05-01T19:02:03.446Z,18.20
2023-05-01T19:04:55.992Z,18.20
2023-05-01T19:07:32.104Z,18.17
2023-05-01T19:10:05.462Z,18.20
2023-05-01T19:12:38.361Z,18.18
2023-05-01T19:15:11.209Z,18.21
2023-05-01T19:17:41.449Z,18.20
2023-05-01T19:20:12.528Z,18.22
2023-05-01T19:22:44.093Z,18.21
2023-05-01T19:25:14.781Z,18.17
2023-05-01T19:27:46.438Z,18.15
2023-05-01T19:30:16.900Z,18.14
2023-05-01T19:32:47.253Z,18.17
2023-05-01T19:35:16.823Z,18.19
2023-05-01T19:37:47.287Z,18.15
2023-05-01T19:40:19.618Z,18.10
2023-05-01T19:42:49.733Z,18.12
2023-05-01T19:45:19.267Z,18.15
2023-05-01T19:47:49.299Z,18.15
2023-05-01T19:50:22.333Z,18.15
2023-05-01T19:52:54.876Z,18.07
2023-05-01T19:55:27.441Z,18.08
2023-05-01T19:57:57.859Z,18.07
2023-05-01T20:00:29.477Z,18.09
2023-05-01T20:03:01.588Z,18.10
2023-05-01T20:05:33.733Z,18.10
2023-05-01T20:08:05.613Z,18.14
2023-05-01T20:10:35.556Z,18.04
2023-05-01T20:13:11.643Z,17.94
2023-05-01T20:15:44.398Z,17.92
2023-05-01T20:18:18.244Z,17.90
2023-05-01T20:20:50.842Z,17.91
2023-05-01T20:23:25.244Z,17.84
2023-05-01T20:25:56.698Z,17.80
2023-05-01T20:28:28.649Z,17.76
2023-05-01T20:30:59.411Z,17.72
2023-05-01T20:33:30.344Z,17.68
2023-05-01T20:36:00.227Z,17.61
2023-05-01T20:38:30.670Z,17.57
2023-05-01T20:40:59.998Z,17.59
2023-05-01T20:43:30.451Z,17.61
2023-05-01T20:46:01.255Z,17.59
2023-05-01T20:48:32.735Z,17.55
2023-05-01T20:51:03.505Z,17.46
2023-05-01T20:53:33.457Z,17.46
2023-05-01T20:56:03.680Z,17.47
2023-05-01T20:58:34.941Z,17.44
2023-05-01T21:01:05.495Z,17.40
2023-05-01T21:03:34.758Z,17.37
2023-05-01T21:06:04.991Z,17.39
2023-05-01T21:08:36.799Z,17.46
2023-05-01T21:11:07.076Z,17.47
2023-05-01T21:13:37.111Z,17.42
2023-05-01T21:16:10.509Z,17.41
2023-05-01T21:18:41.657Z,17.37
2023-05-01T21:21:14.349Z,17.34
2023-05-01T21:23:50.720Z,17.27
2023-05-01T21:26:22.255Z,17.18
2023-05-01T21:28:52.499Z,17.22
2023-05-01T21:31:22.768Z,17.27
2023-05-01T21:33:53.768Z,17.34
2023-05-01T21:36:22.992Z,17.38
2023-05-01T21:38:51.974Z,17.32
2023-05-01T21:41:22.675Z,17.22
2023-05-01T21:43:54.449Z,17.20
2023-05-01T21:46:24.725Z,17.20
2023-05-01T21:48:55.241Z,17.20
2023-05-01T21:51:34.116Z,17.16
2023-05-01T21:54:07.030Z,17.14
2023-05-01T21:56:36.358Z,17.17
2023-05-01T21:59:07.235Z,17.23
2023-05-01T22:01:42.545Z,17.28
2023-05-01T22:04:20.428Z,17.26
2023-05-01T22:06:51.996Z,17.19
2023-05-01T22:09:21.026Z,17.19
2023-05-01T22:11:51.015Z,17.22
2023-05-01T22:14:21.107Z,17.25
2023-05-01T22:16:51.025Z,17.26
2023-05-01T22:19:21.813Z,17.24
2023-05-01T22:21:51.167Z,17.24
2023-05-01T22:24:20.645Z,17.23
2023-05-01T22:26:50.850Z,17.24
2023-05-01T22:29:21.278Z,17.27
2023-05-01T22:31:51.293Z,17.28
2023-05-01T22:34:21.916Z,17.25
2023-05-01T22:36:51.441Z,17.26
2023-05-01T22:39:22.683Z,17.26
2023-05-01T22:41:52.121Z,17.28
2023-05-01T22:44:22.643Z,17.24
2023-05-01T22:46:52.359Z,17.19
2023-05-01T22:49:21.500Z,17.16
2023-05-01T22:51:50.793Z,17.18
2023-05-01T22:54:20.185Z,17.18
2023-05-01T22:56:51.259Z,17.18
2023-05-01T22:59:23.184Z,17.15
2023-05-01T23:01:55.481Z,17.14
2023-05-01T23:04:24.895Z,17.15
2023-05-01T23:06:54.264Z,17.14
2023-05-01T23:09:23.869Z,17.15
2023-05-01T23:11:54.336Z,17.15
2023-05-01T23:14:26.412Z,17.16
2023-05-01T23:16:55.816Z,17.19
2023-05-01T23:19:26.658Z,17.25
2023-05-01T23:22:11.234Z,17.30
2023-05-01T23:24:48.892Z,17.28
2023-05-01T23:27:20.127Z,17.28
2023-05-01T23:29:56.938Z,17.24
2023-05-01T23:32:28.367Z,17.13
2023-05-01T23:35:14.395Z,17.04
2023-05-01T23:37:44.363Z,16.90
2023-05-01T23:40:13.896Z,16.91
2023-05-01T23:42:42.882Z,16.92
2023-05-01T23:45:12.175Z,16.90
2023-05-01T23:47:41.038Z,16.86
2023-05-01T23:50:11.207Z,16.79
2023-05-01T23:52:40.281Z,16.80
2023-05-01T23:55:10.150Z,16.86
2023-05-01T23:57:39.148Z,16.92
